Toyo Maru — JI3710 — position and weather

sailwx.info

Track history (hours):
 
Tides and Currents Weather Stations Pressure Air Temp Water Temp Dewpoint Dewpoint Depression Visibility Wind Speed Wind Dir Waves Ship Positions

Toyo Maru

Last reported at 2015-Jan-30 12:13 UTC. Time now 2015-Feb-01 10:14 UTC.
Position N 34°54' E 139°26'.

Length 125 m; draft 6 m.

Type: Cargo ship. MMSI: 431401953.

Date/timePositionNaut miles runAvg speedWind from/ knotsBaromVisibWave heightAir tempDewpointWater temp
2015-Jan-30 12:13N 34°54' E 139°26'1117.2
2015-Jan-30 11:33N 35°02' E 139°36'1616.0
2015-Jan-30 10:33N 35°16' E 139°46'1413.0
2015-Jan-30 09:27N 35°29' E 139°51'10 0.8
2015-Jan-29 21:30N 35°35' E 140°02'1516.4
2015-Jan-29 20:34N 35°25' E 139°47'1111.2
2015-Jan-29 19:33N 35°14' E 139°47'1615.5
2015-Jan-29 18:33N 35°01' E 139°36'  
2015-Jan-26 11:03N 34°54' E 139°26'918.6
2015-Jan-26 10:34N 35°00' E 139°34'1716.8
2015-Jan-26 09:33N 35°14' E 139°46'1212.4
2015-Jan-26 08:33N 35°26' E 139°46'10 0.7
2015-Jan-25 18:33N 35°32' E 139°57'1515.2
2015-Jan-25 17:33N 35°20' E 139°45'1313.3
2015-Jan-25 16:33N 35°07' E 139°45'  
2015-Jan-22 12:33N 34°57' E 139°29'1818.0
2015-Jan-22 11:33N 35°09' E 139°44'1313.3
2015-Jan-22 10:34N 35°23' E 139°42'18 1.3
2015-Jan-21 21:07N 35°33' E 139°60'917.0
2015-Jan-21 20:33N 35°28' E 139°51'1211.9
2015-Jan-21 19:33N 35°17' E 139°46'1413.8
2015-Jan-21 18:34N 35°04' E 139°40'248 9.5
2015-Jan-20 16:33N 34°04' E 134°47'  
Track history (hours):
 
Tides and Currents Weather Stations Pressure Air Temp Water Temp Dewpoint Dewpoint Depression Visibility Wind Speed Wind Dir Waves Ship Positions

Toyo Maru

Last reported at 2015-Jan-30 12:13 UTC. Time now 2015-Feb-01 10:14 UTC.
Position N 34°54' E 139°26'.

Length 125 m; draft 6 m.

Type: Cargo ship. MMSI: 431401953.

Date/timePositionNaut miles runAvg speedWind from/ knotsBaromVisibWave heightAir tempDewpointWater temp
2015-Jan-30 12:13N 34°54' E 139°26'1117.2
2015-Jan-30 11:33N 35°02' E 139°36'1616.0
2015-Jan-30 10:33N 35°16' E 139°46'1413.0
2015-Jan-30 09:27N 35°29' E 139°51'10 0.8
2015-Jan-29 21:30N 35°35' E 140°02'1516.4
2015-Jan-29 20:34N 35°25' E 139°47'1111.2
2015-Jan-29 19:33N 35°14' E 139°47'1615.5
2015-Jan-29 18:33N 35°01' E 139°36'  
2015-Jan-26 11:03N 34°54' E 139°26'918.6
2015-Jan-26 10:34N 35°00' E 139°34'1716.8
2015-Jan-26 09:33N 35°14' E 139°46'1212.4
2015-Jan-26 08:33N 35°26' E 139°46'10 0.7
2015-Jan-25 18:33N 35°32' E 139°57'1515.2
2015-Jan-25 17:33N 35°20' E 139°45'1313.3
2015-Jan-25 16:33N 35°07' E 139°45'  
2015-Jan-22 12:33N 34°57' E 139°29'1818.0
2015-Jan-22 11:33N 35°09' E 139°44'1313.3
2015-Jan-22 10:34N 35°23' E 139°42'18 1.3
2015-Jan-21 21:07N 35°33' E 139°60'917.0
2015-Jan-21 20:33N 35°28' E 139°51'1211.9
2015-Jan-21 19:33N 35°17' E 139°46'1413.8
2015-Jan-21 18:34N 35°04' E 139°40'248 9.5
2015-Jan-20 16:33N 34°04' E 134°47'  

Dump ship's entire track history